Houghton County Memorial Airport Hancock US
ICAO: KCMX
IATA: CMX
Category: Medium
Scheduled Services: Yes

Elevation: 1095 ft
TransAlt. 18000 ft.

Airport Communications:
ASOS:125.675
MINNEAPOLIS CNTR:127.2
GREEN BAY RDO:122.525
CTAF/UNICOM:122.7

KCMX Zoom In..

Runways:

(A) RW 07 length 5201 ft width 100 ft
---- / hdg 69

(B) RW 13 length 6500 ft width 150 ft
---- / hdg 133

(C) RW 25 length 5201 ft width 100 ft
---- / hdg 249

(D) RW 31 length 6500 ft width 150 ft
ILS 110.30 / hdg 313

Location; KCMX
Day. 16 / Time. 17.53 Zulu
* Altimeter: 29.88
* Temperature: 23° c. 73.4°f.
* Wind from: 280° Speed 21 kn with Gusts up to 30 kn.
Dewpoint: 12° c.
Visibility: 10 Statute Miles.
Clouds: Clear (automated report).

KCMX 161753Z AUTO 28021G30KT 10SM CLR 23/12 A2988 RMK AO2 PK WND 28030/1752 SLP114 T02330117 10239 20178 55003


Wind From 280°
Speed 21 kn.

 
 
jpsmedia.com for Web Design worldairports.se 2018   terms of use